createdAt,value
2016-08-24T00:03:05.438Z,1017.75
2016-08-24T00:08:03.095Z,1017.59
2016-08-24T00:13:00.854Z,1017.65
2016-08-24T00:17:58.730Z,1017.63
2016-08-24T00:22:56.620Z,1017.64
2016-08-24T00:27:54.368Z,1017.50
2016-08-24T00:32:52.137Z,1017.45
2016-08-24T00:37:49.955Z,1017.51
2016-08-24T00:42:47.703Z,1017.39
2016-08-24T00:47:45.407Z,1017.38
2016-08-24T00:52:43.151Z,1017.47
2016-08-24T00:57:41.058Z,1017.48
2016-08-24T01:02:38.793Z,1017.43
2016-08-24T01:07:36.546Z,1017.44
2016-08-24T01:12:34.376Z,1017.51
2016-08-24T01:17:32.447Z,1017.46
2016-08-24T01:22:30.297Z,1017.41
2016-08-24T01:27:27.969Z,1017.41
2016-08-24T01:32:25.643Z,1017.40
2016-08-24T01:37:23.568Z,1017.42
2016-08-24T01:42:21.546Z,1017.40
2016-08-24T01:47:19.359Z,1017.34
2016-08-24T01:52:17.248Z,1017.41
2016-08-24T01:57:15.112Z,1017.43
2016-08-24T02:02:12.979Z,1017.35
2016-08-24T02:07:10.853Z,1017.33
2016-08-24T02:12:08.611Z,1017.29
2016-08-24T02:17:06.249Z,1017.22
2016-08-24T02:22:04.028Z,1017.15
2016-08-24T02:27:01.813Z,1017.15
2016-08-24T02:31:59.549Z,1017.17
2016-08-24T02:36:57.285Z,1017.09
2016-08-24T02:41:55.083Z,1017.06
2016-08-24T02:46:53.068Z,1017.00
2016-08-24T02:51:50.849Z,1017.00
2016-08-24T02:56:48.554Z,1017.00
2016-08-24T03:01:46.434Z,1016.95
2016-08-24T03:06:44.258Z,1016.93
2016-08-24T03:11:42.109Z,1016.96
2016-08-24T03:16:39.844Z,1016.92
2016-08-24T03:21:37.719Z,1016.84
2016-08-24T03:26:35.636Z,1016.87
2016-08-24T03:31:33.535Z,1016.80
2016-08-24T03:36:31.399Z,1016.80
2016-08-24T03:41:29.320Z,1016.85
2016-08-24T03:46:27.163Z,1016.86
2016-08-24T03:51:25.079Z,1016.86
2016-08-24T03:56:23.043Z,1016.94
2016-08-24T04:01:20.748Z,1016.89
2016-08-24T04:06:18.540Z,1016.99
2016-08-24T04:11:16.543Z,1016.92
2016-08-24T04:16:14.148Z,1016.91
2016-08-24T04:21:12.047Z,1016.91
2016-08-24T04:26:09.899Z,1016.94
2016-08-24T04:31:07.802Z,1016.96
2016-08-24T04:36:05.715Z,1017.02
2016-08-24T04:41:03.614Z,1016.94
2016-08-24T04:46:01.481Z,1017.04
2016-08-24T04:50:59.357Z,1017.06
2016-08-24T04:55:57.225Z,1017.08
2016-08-24T05:00:55.250Z,1017.14
2016-08-24T05:05:53.309Z,1017.15
2016-08-24T05:10:51.155Z,1017.08
2016-08-24T05:15:49.021Z,1017.11
2016-08-24T05:20:47.050Z,1017.07
2016-08-24T05:25:44.890Z,1017.16
2016-08-24T05:30:42.868Z,1017.13
2016-08-24T05:35:40.687Z,1017.17
2016-08-24T05:40:38.754Z,1017.24
2016-08-24T05:45:36.667Z,1017.15
2016-08-24T05:50:34.495Z,1017.09
2016-08-24T05:55:32.457Z,1017.13
2016-08-24T06:00:30.384Z,1017.13
2016-08-24T06:05:28.342Z,1017.17
2016-08-24T06:10:26.530Z,1017.23
2016-08-24T06:15:24.359Z,1017.24
2016-08-24T06:20:22.206Z,1017.23
2016-08-24T06:25:21.162Z,1017.31
2016-08-24T06:30:18.778Z,1017.30
2016-08-24T06:35:16.636Z,1017.24
2016-08-24T06:40:14.561Z,1017.26
2016-08-24T06:45:12.508Z,1017.27
2016-08-24T06:50:10.344Z,1017.17
2016-08-24T06:55:08.125Z,1017.24
2016-08-24T07:00:05.829Z,1017.18
2016-08-24T07:05:03.735Z,1017.21
2016-08-24T07:10:01.566Z,1017.09
2016-08-24T07:14:59.348Z,1017.17
2016-08-24T07:19:57.125Z,1017.14
2016-08-24T07:24:54.983Z,1017.12
2016-08-24T07:29:53.218Z,1017.11
2016-08-24T07:34:50.925Z,1017.00
2016-08-24T07:39:48.738Z,1017.01
2016-08-24T07:44:46.790Z,1016.96
2016-08-24T07:49:44.509Z,1016.93
2016-08-24T07:54:42.501Z,1016.94
2016-08-24T07:59:40.565Z,1016.94
2016-08-24T08:04:38.951Z,1016.92
2016-08-24T08:09:36.953Z,1016.91
2016-08-24T08:14:35.086Z,1016.92
2016-08-24T08:19:33.190Z,1016.94
2016-08-24T08:24:31.552Z,1016.93
2016-08-24T08:29:29.526Z,1016.99
2016-08-24T08:34:27.522Z,1016.92
2016-08-24T08:39:25.457Z,1016.88
2016-08-24T08:44:23.390Z,1016.89
2016-08-24T08:49:21.262Z,1016.93
2016-08-24T08:54:19.208Z,1016.87
2016-08-24T08:59:17.044Z,1016.94
2016-08-24T09:04:14.945Z,1016.89
2016-08-24T09:09:12.654Z,1016.85
2016-08-24T09:14:10.359Z,1016.86
2016-08-24T09:19:08.230Z,1016.71
2016-08-24T09:24:05.866Z,1016.73
2016-08-24T09:29:03.600Z,1016.67
2016-08-24T09:34:01.331Z,1016.66
2016-08-24T09:38:59.002Z,1016.60
2016-08-24T09:43:56.771Z,1016.61
2016-08-24T09:48:54.487Z,1016.55
2016-08-24T09:53:52.261Z,1016.54
2016-08-24T09:58:50.173Z,1016.55
2016-08-24T10:03:48.006Z,1016.57
2016-08-24T10:08:45.798Z,1016.50
2016-08-24T10:13:43.587Z,1016.60
2016-08-24T10:18:41.572Z,1016.51
2016-08-24T10:23:39.457Z,1016.41
2016-08-24T10:28:37.441Z,1016.40
2016-08-24T10:33:35.355Z,1016.26
2016-08-24T10:38:33.253Z,1016.26
2016-08-24T10:43:31.163Z,1016.21
2016-08-24T10:48:29.129Z,1016.10
2016-08-24T10:53:26.917Z,1016.10
2016-08-24T10:58:24.912Z,1015.94
2016-08-24T11:03:22.906Z,1015.91
2016-08-24T11:08:20.722Z,1015.94
2016-08-24T11:13:18.571Z,1015.89
2016-08-24T11:18:16.401Z,1015.90
2016-08-24T11:23:14.509Z,1015.83
2016-08-24T11:28:12.337Z,1015.77
2016-08-24T11:33:10.638Z,1015.77
2016-08-24T11:38:08.466Z,1015.61
2016-08-24T11:43:06.319Z,1015.66
2016-08-24T11:48:04.273Z,1015.59
2016-08-24T11:53:02.069Z,1015.61
2016-08-24T11:57:59.827Z,1015.49
2016-08-24T12:02:57.790Z,1015.38
2016-08-24T12:07:55.768Z,1015.41
2016-08-24T12:12:53.530Z,1015.27
2016-08-24T12:17:51.459Z,1015.28
2016-08-24T12:22:49.283Z,1015.23
2016-08-24T12:27:47.069Z,1015.24
2016-08-24T12:32:44.986Z,1015.09
2016-08-24T12:52:26.012Z,1014.50
2016-08-24T12:57:16.530Z,1014.61
2016-08-24T13:02:12.918Z,1014.46
2016-08-24T13:07:09.581Z,1014.46
2016-08-24T13:12:06.252Z,1014.45
2016-08-24T13:17:03.755Z,1014.37
2016-08-24T13:22:00.214Z,1014.72
2016-08-24T13:26:56.205Z,1014.61
2016-08-24T13:31:52.189Z,1014.65
2016-08-24T13:36:48.330Z,1014.56
2016-08-24T13:41:44.663Z,1014.51
2016-08-24T13:46:41.535Z,1014.60
2016-08-24T13:51:38.727Z,1014.48
2016-08-24T13:56:35.282Z,1014.45
2016-08-24T14:01:34.546Z,1014.46
2016-08-24T14:06:30.519Z,1014.45
2016-08-24T14:11:27.187Z,1014.26
2016-08-24T14:16:23.912Z,1014.26
2016-08-24T14:21:20.404Z,1014.30
2016-08-24T14:26:17.340Z,1014.28
2016-08-24T14:31:14.216Z,1014.16
2016-08-24T14:36:10.904Z,1014.18
2016-08-24T14:41:07.443Z,1014.18
2016-08-24T14:46:04.109Z,1014.15
2016-08-24T14:51:01.337Z,1014.25
2016-08-24T14:55:58.087Z,1014.15
2016-08-24T15:00:54.840Z,1014.10
2016-08-24T15:05:51.556Z,1014.05
2016-08-24T15:10:48.109Z,1014.06
2016-08-24T15:15:47.346Z,1013.98
2016-08-24T15:20:43.496Z,1013.92
2016-08-24T15:25:40.441Z,1013.94
2016-08-24T15:30:37.254Z,1013.98
2016-08-24T15:35:33.650Z,1013.92
2016-08-24T15:40:30.487Z,1013.84
2016-08-24T15:45:27.111Z,1013.81
2016-08-24T15:50:24.358Z,1013.77
2016-08-24T15:55:21.083Z,1013.75
2016-08-24T16:00:19.257Z,1013.77
2016-08-24T16:05:15.601Z,1013.66
2016-08-24T16:10:12.190Z,1013.60
2016-08-24T16:15:08.812Z,1013.53
2016-08-24T16:20:05.694Z,1013.47
2016-08-24T16:25:02.398Z,1013.50
2016-08-24T16:29:58.904Z,1013.49
2016-08-24T16:34:55.669Z,1013.47
2016-08-24T16:39:52.871Z,1013.39
2016-08-24T16:44:49.459Z,1013.36
2016-08-24T16:49:46.098Z,1013.37
2016-08-24T16:54:42.614Z,1013.36
2016-08-24T16:59:39.642Z,1013.28
2016-08-24T17:04:36.666Z,1013.36
2016-08-24T17:09:33.306Z,1013.36
2016-08-24T17:14:29.923Z,1013.34
2016-08-24T17:19:26.560Z,1013.25
2016-08-24T17:24:23.126Z,1013.20
2016-08-24T17:29:20.149Z,1013.23
2016-08-24T17:34:17.207Z,1013.16
2016-08-24T17:39:13.881Z,1013.19
2016-08-24T17:44:10.476Z,1013.12
2016-08-24T17:49:07.812Z,1013.20
2016-08-24T17:54:04.460Z,1013.25
2016-08-24T17:59:01.087Z,1013.27
2016-08-24T18:03:57.656Z,1013.28
2016-08-24T18:08:54.992Z,1013.33
2016-08-24T18:13:51.581Z,1013.29
2016-08-24T18:18:48.286Z,1013.28
2016-08-24T18:23:44.954Z,1013.36
2016-08-24T18:28:41.632Z,1013.26
2016-08-24T18:33:38.255Z,1013.36
2016-08-24T18:38:37.541Z,1013.42
2016-08-24T18:43:33.668Z,1013.38
2016-08-24T18:48:30.430Z,1013.41
2016-08-24T18:53:27.085Z,1013.42
2016-08-24T18:58:23.699Z,1013.38
2016-08-24T19:03:20.649Z,1013.42
2016-08-24T19:08:17.252Z,1013.41
2016-08-24T19:13:14.361Z,1013.44
2016-08-24T19:18:11.358Z,1013.48
2016-08-24T19:23:08.228Z,1013.37
2016-08-24T19:28:04.937Z,1013.39
2016-08-24T19:33:01.494Z,1013.45
2016-08-24T19:37:58.230Z,1013.39
2016-08-24T19:42:54.782Z,1013.48
2016-08-24T19:47:51.439Z,1013.38
2016-08-24T19:52:48.078Z,1013.39
2016-08-24T19:57:44.821Z,1013.36
2016-08-24T20:02:43.880Z,1013.31
2016-08-24T20:07:39.927Z,1013.23
2016-08-24T20:12:36.637Z,1013.27
2016-08-24T20:17:33.253Z,1013.29
2016-08-24T20:22:30.398Z,1013.22
2016-08-24T20:27:26.948Z,1013.28
2016-08-24T20:32:23.736Z,1013.27
2016-08-24T20:37:20.752Z,1013.35
2016-08-24T20:42:17.577Z,1013.22
2016-08-24T20:47:15.711Z,1013.31
2016-08-24T20:52:12.178Z,1013.18
2016-08-24T20:57:09.835Z,1013.28
2016-08-24T21:02:06.257Z,1013.28
2016-08-24T21:07:03.017Z,1013.18
2016-08-24T21:11:59.535Z,1013.20
2016-08-24T21:16:56.307Z,1013.12
2016-08-24T21:21:53.239Z,1013.24
2016-08-24T21:26:49.897Z,1013.11
2016-08-24T21:31:46.998Z,1013.16
2016-08-24T21:36:44.144Z,1013.15
2016-08-24T21:41:40.682Z,1013.10
2016-08-24T21:46:37.332Z,1013.13
2016-08-24T21:51:34.275Z,1013.12
2016-08-24T21:56:30.859Z,1013.11
2016-08-24T22:01:27.332Z,1013.16
2016-08-24T22:06:24.389Z,1013.20
2016-08-24T22:11:22.373Z,1013.17
2016-08-24T22:16:18.445Z,1013.23
2016-08-24T22:21:15.141Z,1013.11
2016-08-24T22:26:13.218Z,1013.09
2016-08-24T22:31:09.573Z,1013.01
2016-08-24T22:36:06.190Z,1012.84
2016-08-24T22:41:02.827Z,1012.75
2016-08-24T22:45:59.531Z,1012.79
2016-08-24T22:50:56.274Z,1012.81
2016-08-24T22:55:52.805Z,1012.78
2016-08-24T23:00:49.962Z,1012.78
2016-08-24T23:05:46.712Z,1012.73
2016-08-24T23:10:43.701Z,1012.74
2016-08-24T23:15:40.321Z,1012.70
2016-08-24T23:20:37.183Z,1012.73
2016-08-24T23:25:34.232Z,1012.76
2016-08-24T23:30:30.772Z,1012.83
2016-08-24T23:35:27.365Z,1012.79
2016-08-24T23:40:24.093Z,1012.76
2016-08-24T23:45:21.043Z,1012.80
2016-08-24T23:50:17.711Z,1012.69
2016-08-24T23:55:14.282Z,1012.65
